createdAt,value
2019-04-21T00:11:40.839Z,1001.25
2019-04-21T00:12:16.974Z,1001.30
2019-04-21T00:13:12.190Z,1001.26
2019-04-21T00:14:06.009Z,1001.28
2019-04-21T00:15:07.282Z,1001.27
2019-04-21T00:16:02.405Z,1001.26
2019-04-21T00:17:02.794Z,1001.23
2019-04-21T00:18:00.627Z,1001.24
2019-04-21T00:19:03.356Z,1001.18
2019-04-21T00:20:05.559Z,1001.21
2019-04-21T00:20:58.585Z,1001.16
2019-04-21T00:22:05.713Z,1001.17
2019-04-21T00:23:15.298Z,1001.14
2019-04-21T00:24:08.813Z,1001.16
2019-04-21T00:25:11.808Z,1001.11
2019-04-21T00:26:09.040Z,1001.12
2019-04-21T00:27:12.758Z,1001.11
2019-04-21T00:28:16.928Z,1001.10
2019-04-21T00:29:16.934Z,1001.07
2019-04-21T00:30:17.332Z,1001.06
2019-04-21T00:31:12.627Z,1001.06
2019-04-21T00:32:11.521Z,1001.03
2019-04-21T00:33:05.247Z,1001.03
2019-04-21T00:33:56.762Z,1001.05
2019-04-21T00:35:03.012Z,1001.04
2019-04-21T00:36:05.065Z,1000.97
2019-04-21T00:37:08.322Z,1001.04
2019-04-21T00:38:22.739Z,1001.02
2019-04-21T00:40:17.223Z,1000.98
2019-04-21T00:41:19.064Z,1000.97
2019-04-21T00:42:14.350Z,1000.97
2019-04-21T00:43:14.761Z,1000.96
2019-04-21T00:44:10.989Z,1000.97
2019-04-21T00:45:11.939Z,1000.93
2019-04-21T00:46:04.748Z,1000.94
2019-04-21T00:47:17.517Z,1000.90
2019-04-21T00:48:19.183Z,1000.91
2019-04-21T00:49:10.412Z,1000.91
2019-04-21T00:50:17.965Z,1000.91
2019-04-21T00:51:42.073Z,1000.89
2019-04-21T00:52:28.925Z,1000.85
2019-04-21T00:53:23.120Z,1000.88
2019-04-21T00:54:24.664Z,1000.89
2019-04-21T00:56:21.251Z,1000.90
2019-04-21T00:58:23.453Z,1000.82
2019-04-21T00:59:19.315Z,1000.80
2019-04-21T01:00:18.793Z,1000.79
2019-04-21T01:01:15.126Z,1000.80
2019-04-21T01:02:15.676Z,1000.80
2019-04-21T01:03:20.690Z,1000.78
2019-04-21T01:04:15.607Z,1000.81
2019-04-21T01:05:35.282Z,1000.81
2019-04-21T01:06:22.411Z,1000.79
2019-04-21T01:07:22.020Z,1000.79
2019-04-21T01:08:13.330Z,1000.77
2019-04-21T01:09:13.524Z,1000.79
2019-04-21T01:10:12.204Z,1000.83
2019-04-21T01:11:19.459Z,1000.83
2019-04-21T01:12:19.493Z,1000.80
2019-04-21T01:13:23.529Z,1000.81
2019-04-21T01:14:22.246Z,1000.79
2019-04-21T01:15:27.678Z,1000.76
2019-04-21T01:16:21.008Z,1000.81
2019-04-21T01:17:19.207Z,1000.78
2019-04-21T01:18:16.534Z,1000.77
2019-04-21T01:19:18.313Z,1000.77
2019-04-21T01:20:12.167Z,1000.77
2019-04-21T01:20:57.071Z,1000.72
2019-04-21T01:21:57.102Z,1000.74
2019-04-21T01:22:57.819Z,1000.74
2019-04-21T01:24:07.884Z,1000.70
2019-04-21T01:25:08.000Z,1000.72
2019-04-21T01:26:11.987Z,1000.73
2019-04-21T01:27:06.321Z,1000.67
2019-04-21T01:28:15.180Z,1000.66
2019-04-21T01:29:12.019Z,1000.67
2019-04-21T01:30:19.232Z,1000.69
2019-04-21T01:31:17.328Z,1000.65
2019-04-21T01:32:25.472Z,1000.67
2019-04-21T01:33:24.689Z,1000.63
2019-04-21T01:34:14.945Z,1000.64
2019-04-21T01:35:16.457Z,1000.61
2019-04-21T01:36:14.566Z,1000.62
2019-04-21T01:37:14.500Z,1000.63
2019-04-21T01:38:21.628Z,1000.62
2019-04-21T01:39:20.008Z,1000.57
2019-04-21T01:40:24.169Z,1000.58
2019-04-21T01:41:21.554Z,1000.60
2019-04-21T01:42:15.848Z,1000.57
2019-04-21T01:43:17.585Z,1000.54
2019-04-21T01:44:25.634Z,1000.53
2019-04-21T01:45:20.047Z,1000.54
2019-04-21T01:46:13.932Z,1000.52
2019-04-21T01:47:11.827Z,1000.55
2019-04-21T01:48:12.908Z,1000.51
2019-04-21T01:49:10.530Z,1000.52
2019-04-21T01:50:07.087Z,1000.50
2019-04-21T01:51:16.061Z,1000.51
2019-04-21T01:52:34.874Z,1000.53
2019-04-21T01:53:24.806Z,1000.49
2019-04-21T01:54:21.964Z,1000.49
2019-04-21T01:55:18.379Z,1000.53
2019-04-21T01:56:17.211Z,1000.51
2019-04-21T01:57:17.641Z,1000.51
2019-04-21T01:58:11.541Z,1000.50
2019-04-21T01:59:08.299Z,1000.46
2019-04-21T02:00:12.268Z,1000.49
2019-04-21T02:01:16.038Z,1000.47
2019-04-21T02:02:18.413Z,1000.50
2019-04-21T02:03:34.409Z,1000.46
2019-04-21T02:04:27.401Z,1000.43
2019-04-21T02:05:26.494Z,1000.46
2019-04-21T02:06:22.564Z,1000.42
2019-04-21T02:07:21.853Z,1000.39
2019-04-21T02:08:15.524Z,1000.39
2019-04-21T02:09:14.872Z,1000.43
2019-04-21T02:10:32.153Z,1000.43
2019-04-21T02:11:23.163Z,1000.40
2019-04-21T02:12:20.990Z,1000.41
2019-04-21T02:13:17.150Z,1000.42
2019-04-21T02:14:26.020Z,1000.39
2019-04-21T02:15:23.716Z,1000.38
2019-04-21T02:16:21.556Z,1000.42
2019-04-21T02:17:20.406Z,1000.39
2019-04-21T02:18:17.065Z,1000.40
2019-04-21T02:19:19.798Z,1000.35
2019-04-21T02:20:14.713Z,1000.35
2019-04-21T02:21:09.483Z,1000.34
2019-04-21T02:22:19.262Z,1000.32
2019-04-21T02:23:31.477Z,1000.29
2019-04-21T02:24:30.113Z,1000.23
2019-04-21T02:25:22.849Z,1000.26
2019-04-21T02:26:23.140Z,1000.26
2019-04-21T02:27:21.857Z,1000.25
2019-04-21T02:28:29.755Z,1000.25
2019-04-21T02:29:23.961Z,1000.25
2019-04-21T02:30:27.626Z,1000.20
2019-04-21T02:31:40.477Z,1000.21
2019-04-21T02:32:39.377Z,1000.16
2019-04-21T02:39:30.433Z,1000.14
2019-04-21T02:40:35.824Z,1000.12
2019-04-21T02:41:33.012Z,1000.13
2019-04-21T02:42:39.817Z,1000.09
2019-04-21T02:43:25.196Z,1000.06
2019-04-21T02:44:39.238Z,1000.04
2019-04-21T02:49:45.172Z,1000.08
2019-04-21T02:50:31.507Z,1000.08
2019-04-21T02:51:39.648Z,1000.11
2019-04-21T02:52:39.259Z,1000.04
2019-04-21T02:53:53.619Z,1000.03
2019-04-21T02:57:34.636Z,999.99
2019-04-21T02:58:36.297Z,999.95
2019-04-21T02:59:35.836Z,999.96
2019-04-21T03:00:32.560Z,999.94
2019-04-21T03:01:43.918Z,999.89
2019-04-21T03:03:36.473Z,999.85
2019-04-21T03:04:36.210Z,999.85
2019-04-21T03:05:41.709Z,999.85
2019-04-21T03:06:29.525Z,999.87
2019-04-21T03:07:31.887Z,999.86
2019-04-21T03:08:44.775Z,999.84
2019-04-21T03:09:32.179Z,999.79
2019-04-21T03:10:38.255Z,999.82
2019-04-21T03:11:52.365Z,999.79
2019-04-21T03:12:31.997Z,999.76
2019-04-21T03:13:52.663Z,999.76
2019-04-21T03:16:25.888Z,999.78
2019-04-21T03:18:34.166Z,999.75
2019-04-21T03:19:48.183Z,999.75
2019-04-21T03:20:35.785Z,999.73
2019-04-21T03:21:29.109Z,999.74
2019-04-21T03:22:31.727Z,999.78
2019-04-21T03:23:36.657Z,999.74
2019-04-21T03:24:49.043Z,999.73
2019-04-21T03:26:36.373Z,999.68
2019-04-21T03:27:44.526Z,999.71
2019-04-21T03:28:49.488Z,999.69
2019-04-21T03:31:01.816Z,999.67
2019-04-21T03:31:50.405Z,999.68
2019-04-21T03:37:32.993Z,999.69
2019-04-21T03:39:36.670Z,999.67
2019-04-21T03:40:28.580Z,999.68
2019-04-21T03:42:34.173Z,999.68
2019-04-21T03:44:33.075Z,999.64
2019-04-21T03:46:35.752Z,999.66
2019-04-21T03:47:29.806Z,999.67
2019-04-21T03:51:38.097Z,999.63
2019-04-21T03:52:38.773Z,999.56
2019-04-21T03:53:31.470Z,999.50
2019-04-21T03:54:37.290Z,999.59
2019-04-21T03:57:06.500Z,999.51
2019-04-21T03:57:48.730Z,999.52
2019-04-21T03:59:24.674Z,999.52
2019-04-21T04:01:28.488Z,999.46
2019-04-21T04:02:52.369Z,999.47
2019-04-21T04:06:39.080Z,999.44
2019-04-21T04:10:34.400Z,999.42
2019-04-21T04:11:38.146Z,999.42
2019-04-21T04:12:35.085Z,999.44
2019-04-21T04:14:42.486Z,999.41
2019-04-21T04:15:39.029Z,999.37
2019-04-21T04:19:39.381Z,999.33
2019-04-21T04:23:42.402Z,999.33
2019-04-21T04:24:55.548Z,999.36
2019-04-21T04:26:43.268Z,999.40
2019-04-21T04:27:49.476Z,999.36
2019-04-21T04:30:45.980Z,999.36
2019-04-21T04:34:40.511Z,999.35
2019-04-21T04:35:46.152Z,999.35
2019-04-21T04:36:53.250Z,999.35
2019-04-21T04:37:36.752Z,999.33
2019-04-21T04:38:39.412Z,999.37
2019-04-21T04:39:43.026Z,999.35
2019-04-21T04:40:34.686Z,999.37
2019-04-21T04:41:55.055Z,999.37
2019-04-21T04:42:41.117Z,999.37
2019-04-21T04:43:37.091Z,999.37
2019-04-21T04:44:51.542Z,999.38
2019-04-21T04:45:48.372Z,999.37
2019-04-21T04:46:44.174Z,999.35
2019-04-21T04:47:33.419Z,999.39
2019-04-21T04:48:35.223Z,999.42
2019-04-21T04:49:46.325Z,999.44
2019-04-21T04:50:39.225Z,999.41
2019-04-21T04:51:52.682Z,999.43
2019-04-21T04:52:38.337Z,999.44
2019-04-21T04:53:42.677Z,999.42
2019-04-21T04:55:33.923Z,999.48
2019-04-21T04:56:38.839Z,999.43
2019-04-21T04:59:42.595Z,999.49
2019-04-21T05:03:44.018Z,999.43
2019-04-21T05:05:48.711Z,999.43
2019-04-21T05:06:42.662Z,999.41
2019-04-21T05:08:58.912Z,999.45
2019-04-21T05:09:33.983Z,999.45
2019-04-21T05:10:47.559Z,999.47
2019-04-21T05:12:29.549Z,999.51
2019-04-21T05:13:34.851Z,999.48
2019-04-21T05:14:29.832Z,999.47
2019-04-21T05:15:23.695Z,999.48
2019-04-21T05:17:38.183Z,999.48
2019-04-21T05:18:35.152Z,999.54
2019-04-21T05:19:30.499Z,999.53
2019-04-21T05:20:23.617Z,999.49
2019-04-21T05:21:36.315Z,999.50
2019-04-21T05:23:28.763Z,999.51
2019-04-21T05:24:25.367Z,999.51
2019-04-21T05:25:19.617Z,999.51
2019-04-21T05:26:20.297Z,999.50
2019-04-21T05:27:23.422Z,999.53
2019-04-21T05:28:16.427Z,999.53
2019-04-21T05:29:15.799Z,999.55
2019-04-21T05:30:38.643Z,999.54
2019-04-21T05:31:28.488Z,999.53
2019-04-21T05:32:29.798Z,999.52
2019-04-21T05:33:30.668Z,999.54
2019-04-21T05:34:27.599Z,999.53
2019-04-21T05:35:26.660Z,999.52
2019-04-21T05:36:30.867Z,999.52
2019-04-21T05:37:25.771Z,999.54
2019-04-21T05:38:21.682Z,999.51
2019-04-21T05:39:21.648Z,999.49
2019-04-21T05:40:20.038Z,999.48
2019-04-21T05:41:15.515Z,999.47
2019-04-21T05:42:23.218Z,999.46
2019-04-21T05:43:28.343Z,999.49
2019-04-21T05:44:39.277Z,999.44
2019-04-21T05:45:27.019Z,999.46
2019-04-21T05:46:25.383Z,999.46
2019-04-21T05:48:39.722Z,999.47
2019-04-21T05:49:21.996Z,999.52
2019-04-21T05:50:23.873Z,999.53
2019-04-21T05:51:27.155Z,999.53
2019-04-21T05:52:23.209Z,999.53
2019-04-21T05:53:31.386Z,999.58
2019-04-21T05:54:29.697Z,999.53
2019-04-21T05:55:34.330Z,999.56
2019-04-21T05:56:32.384Z,999.58
2019-04-21T05:57:28.857Z,999.59
2019-04-21T05:58:30.070Z,999.58
2019-04-21T05:59:29.130Z,999.55
2019-04-21T06:00:39.424Z,999.57
2019-04-21T06:01:33.046Z,999.51
2019-04-21T06:02:48.108Z,999.51
2019-04-21T06:03:30.660Z,999.54
2019-04-21T06:04:38.621Z,999.54
2019-04-21T06:05:37.784Z,999.50
2019-04-21T06:07:28.757Z,999.52
2019-04-21T06:08:28.658Z,999.51
2019-04-21T06:09:32.063Z,999.51
2019-04-21T06:10:31.473Z,999.52
2019-04-21T06:12:28.596Z,999.51
2019-04-21T06:13:38.204Z,999.51
2019-04-21T06:14:30.477Z,999.51
2019-04-21T06:15:29.593Z,999.50
2019-04-21T06:16:40.279Z,999.49
2019-04-21T06:17:36.170Z,999.52
2019-04-21T06:18:34.606Z,999.48
2019-04-21T06:19:36.666Z,999.43
2019-04-21T06:20:27.098Z,999.43
2019-04-21T06:21:28.030Z,999.48
2019-04-21T06:22:23.935Z,999.48
2019-04-21T06:23:30.281Z,999.46
2019-04-21T06:24:40.734Z,999.47
2019-04-21T06:28:33.585Z,999.42
2019-04-21T06:29:29.841Z,999.42
2019-04-21T06:30:33.395Z,999.43
2019-04-21T06:31:57.391Z,999.43
2019-04-21T06:33:44.801Z,999.44
2019-04-21T06:34:39.780Z,999.45
2019-04-21T06:35:42.905Z,999.44
2019-04-21T06:36:39.651Z,999.42
2019-04-21T06:38:43.218Z,999.43
2019-04-21T06:39:30.486Z,999.46
2019-04-21T06:40:36.162Z,999.49
2019-04-21T06:41:32.568Z,999.50
2019-04-21T06:42:29.653Z,999.42
2019-04-21T06:43:37.713Z,999.40
2019-04-21T06:44:32.027Z,999.44
2019-04-21T06:45:34.951Z,999.40
2019-04-21T06:46:39.273Z,999.39
2019-04-21T06:47:37.980Z,999.43
2019-04-21T06:48:32.900Z,999.44
2019-04-21T06:49:27.827Z,999.41
2019-04-21T06:50:35.251Z,999.43
2019-04-21T06:53:39.697Z,999.42
2019-04-21T06:54:33.868Z,999.43
2019-04-21T06:55:33.950Z,999.49
2019-04-21T06:56:39.700Z,999.46
2019-04-21T06:57:45.730Z,999.49
2019-04-21T06:58:25.015Z,999.50
2019-04-21T06:59:29.713Z,999.45
2019-04-21T07:00:25.650Z,999.54
2019-04-21T07:01:34.510Z,999.49
2019-04-21T07:02:43.796Z,999.47
2019-04-21T07:03:48.623Z,999.49
2019-04-21T07:04:30.188Z,999.48
2019-04-21T07:05:33.623Z,999.56
2019-04-21T07:06:35.635Z,999.49
2019-04-21T07:07:32.986Z,999.49
2019-04-21T07:08:34.549Z,999.46
2019-04-21T07:09:31.317Z,999.51
2019-04-21T07:10:48.030Z,999.46
2019-04-21T07:11:27.118Z,999.50
2019-04-21T07:12:27.536Z,999.47
2019-04-21T07:13:26.367Z,999.44
2019-04-21T07:14:34.623Z,999.45
2019-04-21T07:15:32.547Z,999.49
2019-04-21T07:16:34.708Z,999.47
2019-04-21T07:17:28.344Z,999.50
2019-04-21T07:18:38.779Z,999.45
2019-04-21T07:19:34.885Z,999.43
2019-04-21T07:20:28.244Z,999.46
2019-04-21T07:21:30.132Z,999.49
2019-04-21T07:22:33.713Z,999.44
2019-04-21T07:23:31.634Z,999.48
2019-04-21T07:24:32.026Z,999.45
2019-04-21T07:25:33.093Z,999.36
2019-04-21T07:26:32.849Z,999.35
2019-04-21T07:27:43.541Z,999.33
2019-04-21T07:28:32.220Z,999.35
2019-04-21T07:29:34.553Z,999.35
2019-04-21T07:30:38.692Z,999.36
2019-04-21T07:31:31.971Z,999.33
2019-04-21T07:32:49.409Z,999.28
2019-04-21T07:33:49.542Z,999.33
2019-04-21T07:34:36.398Z,999.29
2019-04-21T07:35:32.199Z,999.28
2019-04-21T07:36:41.154Z,999.27
2019-04-21T07:37:29.870Z,999.29
2019-04-21T07:38:31.407Z,999.33
2019-04-21T07:39:28.801Z,999.34
2019-04-21T07:40:24.875Z,999.27
2019-04-21T07:41:22.745Z,999.27
2019-04-21T07:42:23.791Z,999.29
2019-04-21T07:43:25.955Z,999.29
2019-04-21T07:44:22.851Z,999.29
2019-04-21T07:45:24.739Z,999.23
2019-04-21T07:46:24.792Z,999.26
2019-04-21T07:47:27.041Z,999.30
2019-04-21T07:48:34.063Z,999.23
2019-04-21T07:49:32.877Z,999.24
2019-04-21T07:50:31.680Z,999.22
2019-04-21T07:51:32.220Z,999.27
2019-04-21T07:53:36.785Z,999.22
2019-04-21T07:54:48.657Z,999.23
2019-04-21T07:55:37.388Z,999.21
2019-04-21T07:56:19.121Z,999.17
2019-04-21T07:57:23.455Z,999.10
2019-04-21T07:58:26.217Z,999.18
2019-04-21T07:59:41.133Z,999.15
2019-04-21T08:01:30.534Z,999.15
2019-04-21T08:02:29.415Z,999.21
2019-04-21T08:04:52.674Z,999.26
2019-04-21T08:05:39.220Z,999.26
2019-04-21T08:06:33.669Z,999.28
2019-04-21T08:07:37.885Z,999.21
2019-04-21T08:08:31.444Z,999.29
2019-04-21T08:09:26.175Z,999.37
2019-04-21T08:10:28.542Z,999.32
2019-04-21T08:12:24.276Z,999.32
2019-04-21T08:13:34.271Z,999.27
2019-04-21T08:14:28.583Z,999.25
2019-04-21T08:15:51.040Z,999.29
2019-04-21T08:16:35.019Z,999.22
2019-04-21T08:17:31.942Z,999.31
2019-04-21T08:18:35.031Z,999.19
2019-04-21T08:19:32.146Z,999.26
2019-04-21T08:20:28.487Z,999.24
2019-04-21T08:21:35.625Z,999.23
2019-04-21T08:22:32.214Z,999.19
2019-04-21T08:23:31.744Z,999.17
2019-04-21T08:24:32.277Z,999.18
2019-04-21T08:25:40.341Z,999.22
2019-04-21T08:26:34.532Z,999.18
2019-04-21T08:27:36.485Z,999.19
2019-04-21T08:28:32.090Z,999.19
2019-04-21T08:30:33.097Z,999.10
2019-04-21T08:31:46.396Z,999.16
2019-04-21T08:32:36.211Z,999.14
2019-04-21T08:33:58.400Z,999.17
2019-04-21T08:34:34.837Z,999.20
2019-04-21T08:36:03.392Z,999.18
2019-04-21T08:36:28.166Z,999.24
2019-04-21T08:37:34.198Z,999.18
2019-04-21T08:38:27.691Z,999.18
2019-04-21T08:39:37.337Z,999.17
2019-04-21T08:40:40.828Z,999.17
2019-04-21T08:41:31.340Z,999.18
2019-04-21T08:42:31.178Z,999.17
2019-04-21T08:43:35.513Z,999.12
2019-04-21T08:44:33.410Z,999.08
2019-04-21T08:45:35.371Z,999.07
2019-04-21T08:46:31.115Z,999.06
2019-04-21T08:47:33.471Z,998.99
2019-04-21T08:48:29.046Z,999.00
2019-04-21T08:49:33.671Z,999.01
2019-04-21T08:52:49.042Z,998.94
2019-04-21T08:53:35.468Z,998.92
2019-04-21T08:54:47.089Z,999.01
2019-04-21T08:56:29.164Z,999.00
2019-04-21T08:57:41.914Z,999.02
2019-04-21T08:58:34.489Z,998.98
2019-04-21T08:59:30.913Z,998.97
2019-04-21T09:00:36.842Z,998.90
2019-04-21T09:01:42.728Z,998.91
2019-04-21T09:02:35.763Z,998.94
2019-04-21T09:03:28.586Z,998.95
2019-04-21T09:04:29.003Z,998.92
2019-04-21T09:05:34.227Z,998.83
2019-04-21T09:06:51.244Z,998.85
2019-04-21T09:07:33.092Z,998.88
2019-04-21T09:08:31.716Z,998.88
2019-04-21T09:09:28.776Z,998.87
2019-04-21T09:10:31.488Z,998.89
2019-04-21T09:11:28.741Z,998.89
2019-04-21T09:12:33.301Z,998.86
2019-04-21T09:13:29.703Z,998.90
2019-04-21T09:14:31.023Z,998.84
2019-04-21T09:15:31.050Z,998.82
2019-04-21T09:16:24.961Z,998.81
2019-04-21T09:17:26.320Z,998.81
2019-04-21T09:18:24.187Z,998.78
2019-04-21T09:19:38.704Z,998.79
2019-04-21T09:20:33.797Z,998.74
2019-04-21T09:22:35.880Z,998.69
2019-04-21T09:23:26.176Z,998.69
2019-04-21T09:24:29.330Z,998.72
2019-04-21T09:25:33.447Z,998.70
2019-04-21T09:27:27.391Z,998.57
2019-04-21T09:28:27.252Z,998.60
2019-04-21T09:29:21.741Z,998.62
2019-04-21T09:30:12.947Z,998.56
2019-04-21T09:31:12.411Z,998.63
2019-04-21T09:32:19.674Z,998.60
2019-04-21T09:33:12.304Z,998.57
2019-04-21T09:34:22.005Z,998.56
2019-04-21T09:35:14.867Z,998.58
2019-04-21T09:36:16.329Z,998.63
2019-04-21T09:37:26.855Z,998.58
2019-04-21T09:38:23.605Z,998.60
2019-04-21T09:39:16.616Z,998.60
2019-04-21T09:40:15.201Z,998.64
2019-04-21T09:41:17.520Z,998.64
2019-04-21T09:42:13.841Z,998.58
2019-04-21T09:43:18.703Z,998.62
2019-04-21T09:44:18.084Z,998.66
2019-04-21T09:45:14.300Z,998.59
2019-04-21T09:46:16.414Z,998.65
2019-04-21T09:47:15.826Z,998.68
2019-04-21T09:48:18.592Z,998.71
2019-04-21T09:50:13.524Z,998.94
2019-04-21T09:51:13.235Z,999.01
2019-04-21T09:53:22.762Z,999.04
2019-04-21T09:54:20.686Z,999.03
2019-04-21T09:55:18.940Z,999.06
2019-04-21T09:56:17.833Z,999.02
2019-04-21T09:57:23.551Z,999.06
2019-04-21T09:58:21.710Z,999.05
2019-04-21T09:59:20.562Z,999.02
2019-04-21T10:00:20.602Z,998.93
2019-04-21T10:01:21.600Z,998.95
2019-04-21T10:02:18.203Z,998.91
2019-04-21T10:03:15.768Z,998.88
2019-04-21T10:04:14.279Z,998.89
2019-04-21T10:05:14.558Z,998.85
2019-04-21T10:06:15.475Z,998.81
2019-04-21T10:07:24.654Z,998.82
2019-04-21T10:08:14.552Z,998.75
2019-04-21T10:09:17.323Z,998.75
2019-04-21T10:10:14.904Z,998.75
2019-04-21T10:11:14.213Z,998.78
2019-04-21T10:12:14.305Z,998.76
2019-04-21T10:13:15.029Z,998.77
2019-04-21T10:14:14.464Z,998.75
2019-04-21T10:15:14.239Z,998.80
2019-04-21T10:16:15.145Z,998.81
2019-04-21T10:17:15.111Z,998.68
2019-04-21T10:18:15.140Z,998.69
2019-04-21T10:19:15.310Z,998.66
2019-04-21T10:20:14.351Z,998.67
2019-04-21T10:21:15.446Z,998.71
2019-04-21T10:22:14.848Z,998.69
2019-04-21T10:23:15.545Z,998.67
2019-04-21T10:24:15.851Z,998.66
2019-04-21T10:25:14.606Z,998.64
2019-04-21T10:26:14.667Z,998.69
2019-04-21T10:27:17.346Z,998.70
2019-04-21T10:28:15.034Z,998.71
2019-04-21T10:29:22.101Z,998.69
2019-04-21T10:30:16.050Z,998.65
2019-04-21T10:31:14.893Z,998.68
2019-04-21T10:32:15.486Z,998.67
2019-04-21T10:33:14.998Z,998.63
2019-04-21T10:34:15.065Z,998.62
2019-04-21T10:35:17.718Z,998.57
2019-04-21T10:36:15.250Z,998.60
2019-04-21T10:37:16.563Z,998.68
2019-04-21T10:38:26.107Z,998.68
2019-04-21T10:40:15.850Z,998.65
2019-04-21T10:41:15.393Z,998.47
2019-04-21T10:42:15.566Z,998.50
2019-04-21T10:43:19.100Z,998.47
2019-04-21T10:44:16.913Z,998.47
2019-04-21T10:45:16.927Z,998.50
2019-04-21T10:46:16.918Z,998.48
2019-04-21T10:47:16.607Z,998.45
2019-04-21T10:48:16.837Z,998.42
2019-04-21T10:49:16.871Z,998.47
2019-04-21T10:50:16.318Z,998.47
2019-04-21T10:51:17.010Z,998.43
2019-04-21T10:52:17.113Z,998.41
2019-04-21T10:53:16.724Z,998.51
2019-04-21T10:54:16.050Z,998.51
2019-04-21T10:55:32.357Z,998.49
2019-04-21T10:56:25.109Z,998.44
2019-04-21T10:57:16.720Z,998.47
2019-04-21T10:58:16.316Z,998.44
2019-04-21T10:59:16.357Z,998.52
2019-04-21T11:00:17.546Z,998.46
2019-04-21T11:01:16.772Z,998.45
2019-04-21T11:02:17.061Z,998.40
2019-04-21T11:03:17.126Z,998.45
2019-04-21T11:04:21.865Z,998.47
2019-04-21T11:05:17.028Z,998.45
2019-04-21T11:06:16.918Z,998.40
2019-04-21T11:07:19.584Z,998.39
2019-04-21T11:08:23.637Z,998.43
2019-04-21T11:09:17.871Z,998.43
2019-04-21T11:10:18.182Z,998.37
2019-04-21T11:11:16.965Z,998.37
2019-04-21T11:12:17.583Z,998.31
2019-04-21T11:13:17.028Z,998.44
2019-04-21T11:14:17.799Z,998.52
2019-04-21T11:15:17.195Z,998.49
2019-04-21T11:16:17.345Z,998.54
2019-04-21T11:17:18.207Z,998.55
2019-04-21T11:18:17.725Z,998.53
2019-04-21T11:19:17.962Z,998.45
2019-04-21T11:20:17.391Z,998.40
2019-04-21T11:21:18.657Z,998.33
2019-04-21T11:22:18.884Z,998.52
2019-04-21T11:24:18.083Z,998.46
2019-04-21T11:29:26.381Z,998.04
2019-04-21T11:30:25.674Z,998.12
2019-04-21T11:35:01.261Z,998.15
2019-04-21T11:45:26.712Z,998.27
2019-04-21T11:46:26.901Z,997.67
2019-04-21T11:49:30.247Z,997.97
2019-04-21T11:50:26.999Z,997.75
2019-04-21T11:54:27.179Z,997.90
2019-04-21T11:55:34.348Z,997.79
2019-04-21T11:57:32.773Z,997.58
2019-04-21T11:58:27.847Z,997.51
2019-04-21T11:59:27.954Z,997.55
2019-04-21T12:01:15.874Z,997.43
2019-04-21T12:02:15.242Z,997.04
2019-04-21T12:03:16.908Z,997.08
2019-04-21T12:04:16.084Z,997.11
2019-04-21T12:05:15.297Z,997.21
2019-04-21T12:06:15.513Z,997.21
2019-04-21T12:07:15.553Z,997.27
2019-04-21T12:08:23.086Z,997.35
2019-04-21T12:09:16.793Z,997.47
2019-04-21T12:10:15.604Z,997.51
2019-04-21T12:11:15.973Z,997.71
2019-04-21T12:12:16.945Z,997.69
2019-04-21T12:13:16.305Z,997.76
2019-04-21T12:14:16.277Z,997.70
2019-04-21T12:15:16.704Z,997.77
2019-04-21T12:16:16.980Z,997.84
2019-04-21T12:17:16.372Z,997.62
2019-04-21T12:18:15.921Z,997.49
2019-04-21T12:19:16.695Z,997.55
2019-04-21T12:20:16.769Z,997.69
2019-04-21T12:21:16.069Z,997.79
2019-04-21T12:22:21.664Z,997.84
2019-04-21T12:23:16.378Z,997.85
2019-04-21T12:24:17.341Z,997.60
2019-04-21T12:25:16.270Z,997.89
2019-04-21T12:26:16.322Z,997.78
2019-04-21T12:27:16.373Z,997.68
2019-04-21T12:28:17.422Z,997.65
2019-04-21T12:29:16.729Z,997.53
2019-04-21T12:30:17.720Z,997.48
2019-04-21T12:31:17.610Z,997.62
2019-04-21T12:32:17.887Z,997.41
2019-04-21T12:33:18.148Z,997.18
2019-04-21T12:34:18.122Z,997.04
2019-04-21T12:35:17.691Z,996.93
2019-04-21T12:36:17.891Z,996.82
2019-04-21T12:37:17.103Z,996.80
2019-04-21T12:38:29.340Z,996.81
2019-04-21T12:39:16.987Z,997.04
2019-04-21T12:40:17.037Z,997.20
2019-04-21T12:41:18.282Z,997.22
2019-04-21T12:42:18.325Z,997.30
2019-04-21T12:43:17.196Z,997.27
2019-04-21T12:44:18.437Z,997.30
2019-04-21T12:45:17.531Z,997.39
2019-04-21T12:46:18.101Z,997.57
2019-04-21T12:47:17.388Z,997.09
2019-04-21T12:48:18.030Z,997.31
2019-04-21T12:49:17.903Z,997.52
2019-04-21T12:50:17.873Z,997.08
2019-04-21T12:51:17.677Z,997.28
2019-04-21T12:52:17.784Z,997.43
2019-04-21T12:53:19.267Z,997.51
2019-04-21T12:54:17.744Z,997.53
2019-04-21T12:55:17.820Z,997.49
2019-04-21T12:56:17.845Z,997.47
2019-04-21T12:57:19.156Z,997.57
2019-04-21T12:58:19.289Z,997.63
2019-04-21T12:59:19.100Z,997.57
2019-04-21T13:00:18.487Z,997.59
2019-04-21T13:01:18.932Z,997.64
2019-04-21T13:02:18.200Z,997.60
2019-04-21T13:03:20.477Z,997.66
2019-04-21T13:04:19.672Z,997.63
2019-04-21T13:05:18.316Z,997.57
2019-04-21T13:06:19.282Z,997.59
2019-04-21T13:07:19.419Z,997.55
2019-04-21T13:08:19.750Z,997.56
2019-04-21T13:09:20.381Z,997.48
2019-04-21T13:10:18.583Z,997.54
2019-04-21T13:11:19.218Z,997.49
2019-04-21T13:12:19.400Z,997.35
2019-04-21T13:13:19.821Z,997.34
2019-04-21T13:14:19.906Z,997.37
2019-04-21T13:15:19.850Z,997.29
2019-04-21T13:16:19.230Z,997.40
2019-04-21T13:17:19.480Z,997.28
2019-04-21T13:18:19.010Z,997.27
2019-04-21T13:19:19.064Z,997.28
2019-04-21T13:20:19.245Z,997.30
2019-04-21T13:21:20.214Z,997.28
2019-04-21T13:22:19.241Z,997.17
2019-04-21T13:23:19.279Z,997.19
2019-04-21T13:24:19.957Z,997.27
2019-04-21T13:25:20.109Z,997.11
2019-04-21T13:26:30.580Z,997.21
2019-04-21T13:27:20.657Z,997.23
2019-04-21T13:28:20.761Z,997.26
2019-04-21T13:29:20.512Z,997.27
2019-04-21T13:30:20.156Z,997.11
2019-04-21T13:31:20.252Z,997.25
2019-04-21T13:32:20.454Z,997.08
2019-04-21T13:33:20.990Z,997.31
2019-04-21T13:34:20.043Z,997.17
2019-04-21T13:35:21.218Z,997.19
2019-04-21T13:36:21.294Z,996.94
2019-04-21T13:37:21.411Z,997.11
2019-04-21T13:38:29.037Z,996.77
2019-04-21T13:40:38.879Z,997.09
2019-04-21T13:41:33.841Z,996.88
2019-04-21T13:42:26.734Z,996.90
2019-04-21T13:43:21.081Z,996.98
2019-04-21T13:44:21.318Z,996.80
2019-04-21T13:45:21.896Z,996.76
2019-04-21T13:46:20.707Z,996.66
2019-04-21T13:47:20.860Z,996.64
2019-04-21T13:48:22.267Z,996.47
2019-04-21T13:49:21.162Z,996.40
2019-04-21T13:50:21.460Z,996.41
2019-04-21T13:51:20.791Z,996.41
2019-04-21T13:52:20.847Z,996.43
2019-04-21T13:53:20.968Z,996.30
2019-04-21T13:54:21.915Z,996.28
2019-04-21T13:55:21.363Z,996.22
2019-04-21T13:56:22.588Z,996.17
2019-04-21T13:57:21.114Z,996.36
2019-04-21T13:58:22.113Z,996.28
2019-04-21T13:59:22.448Z,996.28
2019-04-21T14:00:21.552Z,996.17
2019-04-21T14:01:21.471Z,996.16
2019-04-21T14:02:22.649Z,996.01
2019-04-21T14:03:23.410Z,995.83
2019-04-21T14:04:21.486Z,995.77
2019-04-21T14:05:22.396Z,995.80
2019-04-21T14:06:22.555Z,995.90
2019-04-21T14:07:21.640Z,995.82
2019-04-21T14:08:23.110Z,995.83
2019-04-21T14:09:21.903Z,995.74
2019-04-21T14:10:21.955Z,995.92
2019-04-21T14:11:22.990Z,995.91
2019-04-21T14:12:23.366Z,995.74
2019-04-21T14:13:22.512Z,995.93
2019-04-21T14:14:22.005Z,996.14
2019-04-21T14:15:22.256Z,996.19
2019-04-21T14:16:22.295Z,996.08
2019-04-21T14:17:22.504Z,996.28
2019-04-21T14:18:22.682Z,995.75
2019-04-21T14:19:23.237Z,995.61
2019-04-21T14:20:22.308Z,995.46
2019-04-21T14:21:23.207Z,995.44
2019-04-21T14:22:22.410Z,995.44
2019-04-21T14:23:31.764Z,995.45
2019-04-21T14:24:22.675Z,995.57
2019-04-21T14:25:23.885Z,995.45
2019-04-21T14:26:22.624Z,995.53
2019-04-21T14:27:23.888Z,995.53
2019-04-21T14:28:23.972Z,995.88
2019-04-21T14:29:23.844Z,996.18
2019-04-21T14:30:22.864Z,996.05